createdAt,value
2019-04-07T00:01:41.136Z,8.50
2019-04-07T00:04:13.018Z,8.50
2019-04-07T00:06:45.365Z,8.40
2019-04-07T00:09:17.648Z,8.40
2019-04-07T00:11:50.058Z,8.30
2019-04-07T00:14:22.052Z,8.30
2019-04-07T00:16:54.395Z,8.40
2019-04-07T00:19:26.280Z,8.40
2019-04-07T00:21:59.314Z,8.50
2019-04-07T00:24:31.458Z,8.50
2019-04-07T00:27:03.642Z,8.60
2019-04-07T00:29:36.642Z,8.70
2019-04-07T00:32:09.013Z,8.70
2019-04-07T00:34:41.581Z,8.60
2019-04-07T00:37:14.081Z,8.50
2019-04-07T00:39:46.607Z,8.40
2019-04-07T00:42:18.572Z,8.40
2019-04-07T00:44:50.901Z,8.30
2019-04-07T00:47:23.421Z,8.20
2019-04-07T00:49:55.608Z,8.00
2019-04-07T00:52:28.381Z,8.00
2019-04-07T00:55:00.359Z,8.00
2019-04-07T00:57:32.852Z,8.10
2019-04-07T01:00:08.071Z,8.20
2019-04-07T01:02:40.805Z,8.40
2019-04-07T01:05:13.824Z,8.60
2019-04-07T01:07:46.374Z,8.70
2019-04-07T01:10:19.005Z,8.80
2019-04-07T01:12:51.245Z,8.80
2019-04-07T01:15:24.051Z,8.80
2019-04-07T01:17:56.134Z,8.80
2019-04-07T01:20:28.043Z,8.80
2019-04-07T01:23:00.639Z,8.80
2019-04-07T01:25:32.553Z,8.70
2019-04-07T01:28:04.511Z,8.70
2019-04-07T01:30:37.072Z,8.70
2019-04-07T01:33:09.567Z,8.70
2019-04-07T01:35:47.944Z,8.60
2019-04-07T01:38:15.738Z,8.60
2019-04-07T01:40:57.063Z,8.50
2019-04-07T01:43:43.607Z,8.50
2019-04-07T01:46:35.366Z,8.40
2019-04-07T01:49:28.947Z,8.40
2019-04-07T01:52:38.172Z,8.30
2019-04-07T01:55:31.987Z,8.30
2019-04-07T01:58:27.919Z,8.20
2019-04-07T02:01:21.871Z,8.20
2019-04-07T02:04:18.207Z,8.10
2019-04-07T02:07:07.410Z,7.80
2019-04-07T02:09:57.256Z,7.50
2019-04-07T02:12:48.749Z,7.40
2019-04-07T02:15:37.230Z,7.30
2019-04-07T02:18:34.238Z,7.30
2019-04-07T02:21:23.755Z,7.30
2019-04-07T02:24:08.030Z,7.30
2019-04-07T02:27:01.837Z,7.30
2019-04-07T02:29:52.152Z,7.30
2019-04-07T02:32:44.987Z,7.30
2019-04-07T02:35:39.000Z,7.30
2019-04-07T02:38:29.760Z,7.40
2019-04-07T02:41:19.873Z,7.40
2019-04-07T02:44:13.686Z,7.40
2019-04-07T02:47:08.219Z,7.40
2019-04-07T02:49:54.283Z,7.40
2019-04-07T02:52:47.365Z,7.40
2019-04-07T02:55:50.755Z,7.40
2019-04-07T02:58:27.972Z,7.40
2019-04-07T03:01:06.966Z,7.40
2019-04-07T03:03:48.412Z,7.30
2019-04-07T03:06:52.456Z,7.20
2019-04-07T03:09:36.543Z,7.20
2019-04-07T03:12:27.612Z,7.10
2019-04-07T03:15:19.392Z,7.10
2019-04-07T03:18:20.138Z,7.00
2019-04-07T03:21:01.188Z,7.00
2019-04-07T03:23:44.214Z,7.00
2019-04-07T03:26:36.498Z,7.00
2019-04-07T03:29:18.452Z,7.00
2019-04-07T03:32:08.483Z,7.00
2019-04-07T03:35:00.002Z,6.90
2019-04-07T03:37:51.526Z,6.70
2019-04-07T03:40:51.595Z,6.60
2019-04-07T03:43:52.713Z,6.40
2019-04-07T03:46:42.933Z,6.20
2019-04-07T03:49:20.956Z,6.20
2019-04-07T03:52:19.260Z,6.10
2019-04-07T03:55:10.326Z,6.00
2019-04-07T03:58:00.186Z,5.90
2019-04-07T04:01:16.279Z,6.00
2019-04-07T04:03:56.701Z,6.20
2019-04-07T04:06:46.053Z,6.30
2019-04-07T04:09:24.262Z,6.40
2019-04-07T04:12:05.110Z,6.60
2019-04-07T04:14:54.796Z,6.60
2019-04-07T04:17:28.311Z,6.70
2019-04-07T04:20:00.641Z,6.80
2019-04-07T04:22:32.616Z,6.90
2019-04-07T04:25:05.453Z,7.00
2019-04-07T04:27:37.417Z,7.00
2019-04-07T04:30:11.985Z,7.10
2019-04-07T04:32:44.216Z,7.00
2019-04-07T04:35:17.097Z,7.00
2019-04-07T04:37:52.379Z,7.00
2019-04-07T04:40:22.643Z,7.00
2019-04-07T04:42:55.037Z,6.90
2019-04-07T04:45:27.764Z,6.90
2019-04-07T04:48:00.202Z,6.80
2019-04-07T04:50:32.167Z,6.70
2019-04-07T04:53:04.271Z,6.70
2019-04-07T04:55:37.022Z,6.60
2019-04-07T04:58:09.995Z,6.60
2019-04-07T05:00:43.028Z,6.60
2019-04-07T05:03:15.990Z,6.50
2019-04-07T05:05:47.938Z,6.50
2019-04-07T05:08:20.476Z,6.50
2019-04-07T05:10:53.261Z,6.60
2019-04-07T05:13:25.245Z,6.70
2019-04-07T05:15:57.128Z,6.80
2019-04-07T05:18:30.622Z,6.90
2019-04-07T05:21:03.121Z,7.00
2019-04-07T05:23:36.010Z,7.20
2019-04-07T05:26:08.485Z,7.20
2019-04-07T05:28:40.794Z,7.30
2019-04-07T05:31:13.201Z,7.40
2019-04-07T05:33:45.182Z,7.50
2019-04-07T05:36:17.809Z,7.60
2019-04-07T05:38:50.050Z,7.70
2019-04-07T05:41:22.965Z,7.80
2019-04-07T05:43:54.859Z,7.90
2019-04-07T05:46:28.110Z,7.90
2019-04-07T05:49:00.982Z,8.00
2019-04-07T05:51:33.822Z,8.10
2019-04-07T05:54:06.115Z,8.20
2019-04-07T05:56:38.043Z,8.30
2019-04-07T05:59:12.915Z,8.40
2019-04-07T06:01:44.606Z,8.40
2019-04-07T06:04:19.166Z,8.50
2019-04-07T06:06:54.167Z,8.60
2019-04-07T06:09:24.245Z,8.70
2019-04-07T06:11:56.126Z,8.80
2019-04-07T06:14:28.573Z,8.90
2019-04-07T06:17:00.942Z,9.00
2019-04-07T06:19:37.380Z,9.10
2019-04-07T06:22:08.573Z,9.20
2019-04-07T06:24:41.361Z,9.30
2019-04-07T06:27:15.901Z,9.30
2019-04-07T06:29:47.941Z,9.50
2019-04-07T06:32:20.924Z,9.60
2019-04-07T06:34:53.124Z,9.70
2019-04-07T06:37:27.795Z,9.80
2019-04-07T06:39:59.325Z,9.90
2019-04-07T06:42:34.039Z,10.00
2019-04-07T06:45:07.225Z,10.10
2019-04-07T06:47:45.775Z,10.20
2019-04-07T06:50:45.533Z,10.20
2019-04-07T06:53:17.846Z,10.30
2019-04-07T06:56:19.709Z,10.40
2019-04-07T06:59:15.473Z,10.50
2019-04-07T07:02:22.471Z,10.50
2019-04-07T07:05:11.172Z,10.70
2019-04-07T07:08:07.775Z,10.80
2019-04-07T07:11:00.893Z,10.80
2019-04-07T07:13:52.108Z,11.00
2019-04-07T07:16:43.594Z,11.10
2019-04-07T07:19:45.343Z,11.30
2019-04-07T07:22:20.496Z,11.40
2019-04-07T07:24:55.756Z,11.50
2019-04-07T07:27:27.387Z,11.50
2019-04-07T07:30:00.100Z,11.60
2019-04-07T07:32:35.548Z,11.70
2019-04-07T07:35:06.387Z,11.80
2019-04-07T07:37:38.783Z,11.90
2019-04-07T07:40:12.410Z,12.00
2019-04-07T07:42:47.656Z,12.10
2019-04-07T07:45:19.478Z,12.20
2019-04-07T07:47:53.949Z,12.20
2019-04-07T07:50:26.687Z,12.20
2019-04-07T07:52:58.804Z,12.40
2019-04-07T07:55:35.944Z,12.50
2019-04-07T07:58:04.539Z,12.60
2019-04-07T08:00:40.029Z,12.70
2019-04-07T08:03:10.581Z,12.80
2019-04-07T08:05:43.319Z,12.80
2019-04-07T08:08:16.383Z,12.90
2019-04-07T08:10:48.523Z,13.00
2019-04-07T08:13:21.394Z,13.00
2019-04-07T08:15:56.617Z,13.10
2019-04-07T08:18:28.548Z,13.20
2019-04-07T08:21:00.940Z,13.30
2019-04-07T08:23:34.057Z,13.30
2019-04-07T08:26:06.985Z,13.30
2019-04-07T08:28:39.205Z,13.40
2019-04-07T08:31:12.096Z,13.60
2019-04-07T08:33:44.621Z,13.70
2019-04-07T08:36:23.876Z,13.80
2019-04-07T08:38:59.611Z,14.00
2019-04-07T08:41:34.499Z,14.10
2019-04-07T08:44:09.368Z,14.20
2019-04-07T08:46:44.326Z,14.30
2019-04-07T08:49:18.144Z,14.40
2019-04-07T08:51:52.954Z,14.50
2019-04-07T08:54:28.597Z,14.60
2019-04-07T08:57:02.143Z,14.80
2019-04-07T08:59:35.481Z,14.90
2019-04-07T09:02:08.670Z,14.80
2019-04-07T09:04:51.270Z,14.90
2019-04-07T09:07:25.281Z,15.00
2019-04-07T09:09:57.817Z,15.10
2019-04-07T09:12:31.998Z,15.20
2019-04-07T09:15:05.140Z,15.40
2019-04-07T09:17:47.163Z,15.50
2019-04-07T09:20:31.389Z,15.60
2019-04-07T09:23:31.259Z,15.60
2019-04-07T09:26:21.763Z,15.80
2019-04-07T09:29:16.291Z,15.90
2019-04-07T09:32:08.273Z,16.10
2019-04-07T09:34:58.731Z,16.20
2019-04-07T09:37:41.665Z,16.40
2019-04-07T09:40:39.336Z,16.50
2019-04-07T09:43:34.840Z,16.60
2019-04-07T09:46:15.106Z,16.80
2019-04-07T09:49:03.448Z,16.80
2019-04-07T09:52:03.609Z,16.90
2019-04-07T09:54:52.959Z,16.90
2019-04-07T09:57:42.219Z,17.00
2019-04-07T10:00:33.793Z,17.30
2019-04-07T10:03:24.908Z,17.40
2019-04-07T10:06:34.115Z,17.50
2019-04-07T10:09:19.695Z,17.60
2019-04-07T10:12:03.403Z,17.50
2019-04-07T10:14:54.036Z,17.50
2019-04-07T10:17:48.517Z,17.50
2019-04-07T10:20:42.939Z,17.50
2019-04-07T10:23:28.809Z,17.40
2019-04-07T10:26:29.124Z,17.40
2019-04-07T10:29:35.344Z,17.30
2019-04-07T10:32:16.809Z,17.40
2019-04-07T10:35:04.779Z,17.40
2019-04-07T10:37:51.312Z,17.60
2019-04-07T10:40:31.611Z,17.70
2019-04-07T10:43:26.149Z,17.70
2019-04-07T10:46:05.806Z,17.80
2019-04-07T10:48:55.768Z,18.00
2019-04-07T10:51:53.252Z,18.20
2019-04-07T10:54:33.660Z,18.40
2019-04-07T10:57:23.150Z,18.60
2019-04-07T11:00:14.631Z,18.60
2019-04-07T11:02:57.275Z,18.70
2019-04-07T11:05:48.235Z,18.60
2019-04-07T11:08:35.610Z,18.60
2019-04-07T11:11:35.787Z,18.60
2019-04-07T11:14:29.770Z,18.50
2019-04-07T11:17:27.273Z,18.40
2019-04-07T11:20:18.421Z,18.60
2019-04-07T11:22:58.937Z,18.90
2019-04-07T11:25:56.150Z,19.30
2019-04-07T11:28:37.983Z,19.40
2019-04-07T11:31:21.239Z,19.40
2019-04-07T11:34:11.075Z,19.40
2019-04-07T11:37:01.698Z,19.50
2019-04-07T11:39:53.366Z,19.60
2019-04-07T11:42:35.923Z,20.00
2019-04-07T11:45:29.360Z,19.90
2019-04-07T11:48:29.895Z,19.80
2019-04-07T11:51:20.536Z,19.80
2019-04-07T11:54:18.126Z,19.90
2019-04-07T11:57:03.336Z,19.90
2019-04-07T11:59:42.698Z,20.00
2019-04-07T12:02:44.200Z,20.10
2019-04-07T12:05:29.631Z,20.10
2019-04-07T12:08:19.065Z,19.90
2019-04-07T12:11:14.447Z,20.10
2019-04-07T12:14:09.194Z,19.80
2019-04-07T12:17:08.940Z,19.20
2019-04-07T12:20:00.348Z,18.60
2019-04-07T12:22:50.208Z,18.60
2019-04-07T12:25:40.281Z,18.90
2019-04-07T12:28:31.334Z,18.70
2019-04-07T12:31:10.286Z,19.00
2019-04-07T12:33:55.014Z,19.30
2019-04-07T12:36:46.544Z,19.60
2019-04-07T12:39:50.755Z,19.80
2019-04-07T12:42:42.938Z,19.60
2019-04-07T12:45:24.401Z,19.20
2019-04-07T12:48:05.990Z,18.90
2019-04-07T12:50:52.257Z,18.70
2019-04-07T12:54:01.897Z,18.70
2019-04-07T12:56:57.699Z,18.80
2019-04-07T12:59:48.734Z,18.90
2019-04-07T13:02:40.262Z,18.80
2019-04-07T13:05:35.496Z,18.70
2019-04-07T13:08:30.519Z,18.80
2019-04-07T13:11:30.092Z,19.10
2019-04-07T13:14:12.185Z,19.20
2019-04-07T13:16:56.447Z,18.70
2019-04-07T13:19:46.714Z,18.40
2019-04-07T13:22:44.426Z,18.20
2019-04-07T13:25:41.862Z,18.20
2019-04-07T13:28:33.115Z,18.40
2019-04-07T13:31:19.577Z,18.20
2019-04-07T13:34:09.431Z,18.10
2019-04-07T13:37:12.501Z,18.20
2019-04-07T13:40:03.957Z,18.20
2019-04-07T13:42:58.972Z,18.50
2019-04-07T13:45:53.847Z,18.80
2019-04-07T13:48:54.804Z,18.90
2019-04-07T13:51:34.852Z,18.80
2019-04-07T13:54:27.762Z,18.80
2019-04-07T13:57:29.427Z,18.80
2019-04-07T14:00:37.073Z,18.90
2019-04-07T14:03:35.577Z,19.00
2019-04-07T14:06:14.951Z,18.90
2019-04-07T14:09:04.589Z,18.90
2019-04-07T14:12:12.913Z,18.90
2019-04-07T14:15:09.389Z,18.90
2019-04-07T14:17:54.742Z,18.90
2019-04-07T14:20:55.138Z,18.90
2019-04-07T14:23:55.536Z,18.70
2019-04-07T14:26:55.020Z,18.70
2019-04-07T14:30:01.468Z,18.70
2019-04-07T14:32:52.000Z,18.60
2019-04-07T14:35:55.382Z,18.70
2019-04-07T14:38:55.911Z,18.80
2019-04-07T14:42:02.619Z,18.70
2019-04-07T14:44:48.990Z,18.60
2019-04-07T14:47:37.081Z,18.60
2019-04-07T14:50:28.465Z,18.80
2019-04-07T14:53:12.096Z,18.90
2019-04-07T14:56:05.808Z,18.90
2019-04-07T14:58:43.228Z,18.90
2019-04-07T15:01:24.489Z,18.50
2019-04-07T15:03:56.996Z,18.00
2019-04-07T15:06:33.190Z,17.70
2019-04-07T15:09:22.767Z,17.40
2019-04-07T15:12:19.312Z,17.30
2019-04-07T15:14:43.829Z,17.20
2019-04-07T15:17:16.603Z,17.20
2019-04-07T15:19:48.661Z,17.20
2019-04-07T15:22:24.813Z,17.20
2019-04-07T15:24:55.957Z,17.40
2019-04-07T15:27:28.376Z,17.40
2019-04-07T15:30:00.750Z,17.30
2019-04-07T15:32:35.475Z,17.10
2019-04-07T15:35:11.821Z,16.90
2019-04-07T15:37:42.409Z,16.80
2019-04-07T15:40:16.437Z,16.60
2019-04-07T15:42:50.765Z,16.50
2019-04-07T15:45:22.312Z,16.50
2019-04-07T15:47:55.174Z,16.70
2019-04-07T15:50:30.141Z,16.80
2019-04-07T15:53:03.049Z,16.90
2019-04-07T15:55:45.805Z,17.00
2019-04-07T15:58:09.601Z,16.90
2019-04-07T16:00:42.054Z,16.80
2019-04-07T16:03:15.710Z,16.60
2019-04-07T16:05:47.972Z,16.50
2019-04-07T16:08:20.443Z,16.30
2019-04-07T16:10:53.657Z,16.30
2019-04-07T16:13:26.983Z,16.20
2019-04-07T16:15:59.626Z,16.20
2019-04-07T16:18:32.154Z,16.10
2019-04-07T16:21:07.143Z,16.00
2019-04-07T16:23:37.964Z,16.00
2019-04-07T16:26:10.767Z,15.90
2019-04-07T16:28:46.153Z,15.80
2019-04-07T16:31:19.794Z,15.70
2019-04-07T16:33:51.861Z,15.70
2019-04-07T16:36:25.399Z,15.60
2019-04-07T16:39:00.380Z,15.60
2019-04-07T16:41:32.784Z,15.60
2019-04-07T16:44:08.252Z,15.60
2019-04-07T16:46:39.158Z,15.50
2019-04-07T16:49:13.714Z,15.50
2019-04-07T16:51:46.179Z,15.40
2019-04-07T16:54:18.581Z,15.30
2019-04-07T16:56:55.797Z,15.20
2019-04-07T16:59:26.384Z,15.10
2019-04-07T17:01:59.134Z,15.10
2019-04-07T17:04:32.224Z,15.00
2019-04-07T17:07:08.870Z,15.00
2019-04-07T17:09:38.486Z,15.00
2019-04-07T17:12:11.585Z,15.10
2019-04-07T17:14:44.833Z,15.00
2019-04-07T17:17:20.810Z,15.00
2019-04-07T17:19:51.752Z,14.90
2019-04-07T17:22:24.979Z,14.90
2019-04-07T17:25:00.308Z,14.80
2019-04-07T17:27:32.629Z,14.80
2019-04-07T17:30:05.445Z,14.80
2019-04-07T17:32:39.151Z,14.70
2019-04-07T17:35:17.222Z,14.70
2019-04-07T17:37:49.546Z,14.70
2019-04-07T17:40:26.709Z,14.60
2019-04-07T17:43:14.979Z,14.60
2019-04-07T17:46:05.177Z,14.60
2019-04-07T17:48:53.049Z,14.60
2019-04-07T17:51:36.341Z,14.50
2019-04-07T17:54:24.900Z,14.50
2019-04-07T17:57:22.643Z,14.50
2019-04-07T18:00:16.450Z,14.40
2019-04-07T18:03:11.207Z,14.40
2019-04-07T18:06:02.317Z,14.40
2019-04-07T18:09:08.010Z,14.30
2019-04-07T18:11:44.858Z,14.20
2019-04-07T18:14:42.639Z,14.30
2019-04-07T18:17:23.681Z,14.20
2019-04-07T18:20:15.802Z,14.20
2019-04-07T18:23:05.645Z,14.20
2019-04-07T18:25:47.900Z,14.10
2019-04-07T18:28:30.587Z,14.10
2019-04-07T18:31:13.276Z,14.00
2019-04-07T18:34:10.867Z,13.90
2019-04-07T18:37:08.429Z,13.90
2019-04-07T18:40:02.540Z,13.80
2019-04-07T18:42:59.297Z,13.70
2019-04-07T18:45:54.852Z,13.70
2019-04-07T18:48:49.072Z,13.50
2019-04-07T18:51:29.386Z,13.50
2019-04-07T18:54:24.831Z,13.40
2019-04-07T18:57:18.427Z,13.40
2019-04-07T19:00:06.020Z,13.40
2019-04-07T19:02:52.515Z,13.50
2019-04-07T19:05:42.606Z,13.50
2019-04-07T19:08:39.049Z,13.50
2019-04-07T19:11:23.975Z,13.50
2019-04-07T19:14:14.137Z,13.60
2019-04-07T19:16:48.201Z,13.60
2019-04-07T19:19:35.556Z,13.70
2019-04-07T19:22:21.356Z,13.70
2019-04-07T19:25:28.028Z,13.70
2019-04-07T19:28:21.581Z,13.70
2019-04-07T19:31:02.607Z,13.70
2019-04-07T19:33:56.664Z,13.70
2019-04-07T19:36:49.858Z,13.70
2019-04-07T19:39:44.325Z,13.80
2019-04-07T19:42:41.711Z,13.70
2019-04-07T19:45:30.727Z,13.70
2019-04-07T19:48:28.811Z,13.60
2019-04-07T19:51:19.736Z,13.60
2019-04-07T19:54:09.243Z,13.50
2019-04-07T19:56:59.019Z,13.40
2019-04-07T19:59:56.938Z,13.30
2019-04-07T20:02:47.041Z,13.20
2019-04-07T20:05:36.670Z,13.10
2019-04-07T20:08:26.863Z,12.80
2019-04-07T20:11:07.842Z,12.50
2019-04-07T20:13:47.293Z,12.30
2019-04-07T20:16:44.657Z,12.20
2019-04-07T20:19:42.963Z,12.20
2019-04-07T20:22:33.805Z,12.10
2019-04-07T20:25:35.692Z,11.90
2019-04-07T20:28:17.447Z,11.90
2019-04-07T20:31:08.296Z,11.80
2019-04-07T20:34:09.800Z,11.80
2019-04-07T20:37:09.468Z,11.60
2019-04-07T20:40:03.225Z,11.50
2019-04-07T20:42:50.647Z,11.50
2019-04-07T20:45:49.738Z,11.50
2019-04-07T20:48:39.862Z,11.50
2019-04-07T20:51:29.656Z,11.50
2019-04-07T20:54:21.583Z,11.50
2019-04-07T20:57:11.445Z,11.60
2019-04-07T21:00:08.434Z,11.60
2019-04-07T21:03:14.480Z,11.60
2019-04-07T21:05:49.141Z,11.70
2019-04-07T21:08:38.801Z,11.70
2019-04-07T21:11:24.838Z,11.70
2019-04-07T21:14:26.017Z,11.70
2019-04-07T21:17:09.739Z,11.60
2019-04-07T21:20:10.748Z,11.60
2019-04-07T21:22:51.947Z,11.60
2019-04-07T21:25:41.566Z,11.70
2019-04-07T21:28:23.060Z,11.70
2019-04-07T21:31:17.470Z,11.80
2019-04-07T21:33:56.016Z,11.90
2019-04-07T21:36:50.729Z,11.90
2019-04-07T21:39:41.771Z,12.00
2019-04-07T21:42:32.690Z,12.00
2019-04-07T21:45:14.847Z,12.00
2019-04-07T21:48:04.025Z,12.00
2019-04-07T21:50:58.190Z,12.10
2019-04-07T21:54:04.059Z,12.10
2019-04-07T21:56:58.232Z,12.10
2019-04-07T21:59:36.303Z,12.10
2019-04-07T22:02:26.138Z,12.20
2019-04-07T22:05:10.023Z,12.10
2019-04-07T22:07:47.968Z,12.10
2019-04-07T22:10:21.990Z,12.10
2019-04-07T22:13:00.237Z,12.10
2019-04-07T22:15:42.144Z,12.00
2019-04-07T22:18:07.567Z,11.90
2019-04-07T22:20:37.098Z,11.80
2019-04-07T22:23:10.065Z,11.70
2019-04-07T22:25:55.875Z,11.70
2019-04-07T22:28:30.270Z,11.70
2019-04-07T22:31:03.420Z,11.70
2019-04-07T22:33:35.663Z,11.70
2019-04-07T22:36:11.252Z,11.70
2019-04-07T22:38:43.225Z,11.80
2019-04-07T22:41:15.605Z,11.70
2019-04-07T22:43:51.425Z,11.80
2019-04-07T22:46:26.083Z,11.80
2019-04-07T22:48:58.301Z,11.80
2019-04-07T22:51:30.683Z,11.80
2019-04-07T22:54:03.402Z,11.90
2019-04-07T22:56:37.511Z,11.90
2019-04-07T22:59:10.461Z,11.90
2019-04-07T23:01:44.242Z,11.90
2019-04-07T23:04:16.576Z,12.00
2019-04-07T23:06:49.089Z,12.00
2019-04-07T23:09:21.844Z,12.00
2019-04-07T23:11:54.539Z,12.00
2019-04-07T23:14:27.495Z,12.10
2019-04-07T23:17:00.428Z,12.00
2019-04-07T23:19:32.577Z,12.00
2019-04-07T23:22:05.324Z,12.00
2019-04-07T23:24:37.435Z,12.00
2019-04-07T23:27:10.322Z,12.10
2019-04-07T23:29:42.918Z,12.10
2019-04-07T23:32:15.834Z,12.10
2019-04-07T23:34:48.687Z,12.10
2019-04-07T23:37:22.085Z,12.10
2019-04-07T23:39:54.184Z,12.10
2019-04-07T23:42:26.937Z,12.00
2019-04-07T23:44:59.026Z,12.00
2019-04-07T23:47:31.243Z,11.90
2019-04-07T23:50:03.445Z,11.80
2019-04-07T23:52:35.641Z,11.70
2019-04-07T23:55:08.031Z,11.60
2019-04-07T23:57:40.284Z,11.60
